createdAt,value
2023-04-06T00:00:49.884Z,74.15
2023-04-06T00:01:49.971Z,74.25
2023-04-06T00:02:49.951Z,74.04
2023-04-06T00:03:49.872Z,74.25
2023-04-06T00:04:49.838Z,74.56
2023-04-06T00:05:49.855Z,74.25
2023-04-06T00:06:49.943Z,74.46
2023-04-06T00:07:49.814Z,74.07
2023-04-06T00:08:49.791Z,74.07
2023-04-06T00:09:49.819Z,74.04
2023-04-06T00:10:49.764Z,74.25
2023-04-06T00:11:49.824Z,73.94
2023-04-06T00:12:49.745Z,74.04
2023-04-06T00:13:49.796Z,74.29
2023-04-06T00:14:49.792Z,73.97
2023-04-06T00:15:49.752Z,74.46
2023-04-06T00:16:49.793Z,74.07
2023-04-06T00:17:49.854Z,74.18
2023-04-06T00:18:49.698Z,74.49
2023-04-06T00:19:49.681Z,74.39
2023-04-06T00:20:49.674Z,73.76
2023-04-06T00:21:49.959Z,74.29
2023-04-06T00:22:49.697Z,74.18
2023-04-06T00:23:49.636Z,73.83
2023-04-06T00:24:49.642Z,74.07
2023-04-06T00:25:49.617Z,74.18
2023-04-06T00:26:49.672Z,74.39
2023-04-06T00:27:49.617Z,74.49
2023-04-06T00:28:49.644Z,74.60
2023-04-06T00:29:49.582Z,74.49
2023-04-06T00:30:49.590Z,74.29
2023-04-06T00:31:49.571Z,74.29
2023-04-06T00:32:49.640Z,74.18
2023-04-06T00:33:49.614Z,74.07
2023-04-06T00:34:49.554Z,73.90
2023-04-06T00:35:49.529Z,74.42
2023-04-06T00:36:49.508Z,74.11
2023-04-06T00:37:49.508Z,74.21
2023-04-06T00:38:49.566Z,74.21
2023-04-06T00:39:49.477Z,74.11
2023-04-06T00:40:49.475Z,74.42
2023-04-06T00:41:49.456Z,74.32
2023-04-06T00:42:49.469Z,74.32
2023-04-06T00:43:49.506Z,74.32
2023-04-06T00:44:49.426Z,74.42
2023-04-06T00:45:49.493Z,74.11
2023-04-06T00:46:49.429Z,74.60
2023-04-06T00:47:49.442Z,74.84
2023-04-06T00:48:49.450Z,74.52
2023-04-06T00:49:49.395Z,74.63
2023-04-06T00:50:49.360Z,74.63
2023-04-06T00:51:49.350Z,74.95
2023-04-06T00:52:49.340Z,74.74
2023-04-06T00:53:49.403Z,74.95
2023-04-06T00:54:49.319Z,74.84
2023-04-06T00:55:49.310Z,74.95
2023-04-06T00:56:49.318Z,74.95
2023-04-06T00:57:49.289Z,75.05
2023-04-06T00:58:49.387Z,75.05
2023-04-06T00:59:49.290Z,75.26
2023-04-06T01:00:49.333Z,75.26
2023-04-06T01:01:49.298Z,75.46
2023-04-06T01:02:49.385Z,75.18
2023-04-06T01:03:49.241Z,75.40
2023-04-06T01:04:49.242Z,75.15
2023-04-06T01:05:49.421Z,75.29
2023-04-06T01:06:49.315Z,75.18
2023-04-06T01:07:49.199Z,75.29
2023-04-06T01:08:49.222Z,75.18
2023-04-06T01:09:49.180Z,75.29
2023-04-06T01:10:49.242Z,75.18
2023-04-06T01:11:49.148Z,75.08
2023-04-06T01:12:49.136Z,75.29
2023-04-06T01:13:49.141Z,75.08
2023-04-06T01:14:49.123Z,75.18
2023-04-06T01:15:49.208Z,75.18
2023-04-06T01:16:49.175Z,75.18
2023-04-06T01:17:49.108Z,75.18
2023-04-06T01:18:49.116Z,75.29
2023-04-06T01:19:49.078Z,75.18
2023-04-06T01:20:49.065Z,75.50
2023-04-06T01:21:49.252Z,75.50
2023-04-06T01:22:49.086Z,75.71
2023-04-06T01:23:49.032Z,75.40
2023-04-06T01:24:49.018Z,75.63
2023-04-06T01:25:49.000Z,75.74
2023-04-06T01:26:49.105Z,75.95
2023-04-06T01:27:48.983Z,76.06
2023-04-06T01:28:48.986Z,75.95
2023-04-06T01:29:48.963Z,75.95
2023-04-06T01:30:48.966Z,76.06
2023-04-06T01:31:49.128Z,76.37
2023-04-06T01:32:48.999Z,76.57
2023-04-06T01:33:48.939Z,76.57
2023-04-06T01:34:49.040Z,76.89
2023-04-06T01:35:48.945Z,76.68
2023-04-06T01:36:48.904Z,76.68
2023-04-06T01:37:48.876Z,76.37
2023-04-06T01:38:48.907Z,76.37
2023-04-06T01:39:48.868Z,76.26
2023-04-06T01:40:48.919Z,76.57
2023-04-06T01:41:48.880Z,76.68
2023-04-06T01:42:48.834Z,76.26
2023-04-06T01:43:48.841Z,76.47
2023-04-06T01:44:48.820Z,76.68
2023-04-06T01:45:48.868Z,77.00
2023-04-06T01:46:48.832Z,76.68
2023-04-06T01:47:48.845Z,76.68
2023-04-06T01:48:48.783Z,76.57
2023-04-06T01:49:48.763Z,76.57
2023-04-06T01:50:48.823Z,76.37
2023-04-06T01:51:48.729Z,76.37
2023-04-06T01:52:48.747Z,76.47
2023-04-06T01:53:48.727Z,76.26
2023-04-06T01:54:48.730Z,76.26
2023-04-06T01:55:48.772Z,75.95
2023-04-06T01:56:48.686Z,75.95
2023-04-06T01:57:48.680Z,76.16
2023-04-06T01:58:48.721Z,76.02
2023-04-06T01:59:48.675Z,76.02
2023-04-06T02:00:48.805Z,75.71
2023-04-06T02:01:48.711Z,75.71
2023-04-06T02:02:48.639Z,75.92
2023-04-06T02:03:48.613Z,75.81
2023-04-06T02:04:48.610Z,76.06
2023-04-06T02:05:48.653Z,76.06
2023-04-06T02:06:48.613Z,76.06
2023-04-06T02:07:48.589Z,76.12
2023-04-06T02:08:48.566Z,76.06
2023-04-06T02:09:48.574Z,76.06
2023-04-06T02:10:48.621Z,76.06
2023-04-06T02:11:48.534Z,76.06
2023-04-06T02:12:48.539Z,75.95
2023-04-06T02:13:48.516Z,75.74
2023-04-06T02:14:48.500Z,75.85
2023-04-06T02:15:48.574Z,75.95
2023-04-06T02:16:48.518Z,75.95
2023-04-06T02:17:48.496Z,76.06
2023-04-06T02:18:48.487Z,75.95
2023-04-06T02:19:48.452Z,75.95
2023-04-06T02:20:48.506Z,76.06
2023-04-06T02:21:48.492Z,76.16
2023-04-06T02:22:48.441Z,75.95
2023-04-06T02:23:48.417Z,75.92
2023-04-06T02:24:48.417Z,75.95
2023-04-06T02:25:48.464Z,75.95
2023-04-06T02:26:48.385Z,75.95
2023-04-06T02:27:48.369Z,75.95
2023-04-06T02:28:48.369Z,76.06
2023-04-06T02:29:48.358Z,76.57
2023-04-06T02:30:48.428Z,76.47
2023-04-06T02:31:48.425Z,76.37
2023-04-06T02:32:48.370Z,76.57
2023-04-06T02:33:48.347Z,76.47
2023-04-06T02:34:48.304Z,76.16
2023-04-06T02:35:48.375Z,76.40
2023-04-06T02:36:48.341Z,76.40
2023-04-06T02:37:48.293Z,76.47
2023-04-06T02:38:48.299Z,76.47
2023-04-06T02:39:48.263Z,76.61
2023-04-06T02:40:48.263Z,76.72
2023-04-06T02:41:48.291Z,76.72
2023-04-06T02:42:48.219Z,76.82
2023-04-06T02:43:48.227Z,77.24
2023-04-06T02:44:48.218Z,77.24
2023-04-06T02:45:48.224Z,76.82
2023-04-06T02:46:48.245Z,76.61
2023-04-06T02:47:48.251Z,76.92
2023-04-06T02:48:48.154Z,76.92
2023-04-06T02:49:48.700Z,77.03
2023-04-06T02:50:48.141Z,77.86
2023-04-06T02:51:48.120Z,77.45
2023-04-06T02:52:48.176Z,77.55
2023-04-06T02:53:48.116Z,77.86
2023-04-06T02:54:48.115Z,77.86
2023-04-06T02:55:48.105Z,77.66
2023-04-06T02:56:48.082Z,77.76
2023-04-06T02:57:48.221Z,77.76
2023-04-06T02:58:48.092Z,77.69
2023-04-06T02:59:48.055Z,77.80
2023-04-06T03:00:48.127Z,77.55
2023-04-06T03:01:48.113Z,78.00
2023-04-06T03:02:48.110Z,77.69
2023-04-06T03:03:48.178Z,77.76
2023-04-06T03:04:47.993Z,77.76
2023-04-06T03:05:47.975Z,77.66
2023-04-06T03:06:48.103Z,77.69
2023-04-06T03:07:47.986Z,77.86
2023-04-06T03:08:47.954Z,77.66
2023-04-06T03:09:47.946Z,77.90
2023-04-06T03:10:47.943Z,77.59
2023-04-06T03:11:47.974Z,78.00
2023-04-06T03:12:47.932Z,78.11
2023-04-06T03:13:47.906Z,77.90
2023-04-06T03:14:47.913Z,77.80
2023-04-06T03:15:47.909Z,78.21
2023-04-06T03:16:47.962Z,78.21
2023-04-06T03:17:47.889Z,78.94
2023-04-06T03:18:47.861Z,78.63
2023-04-06T03:19:47.851Z,78.74
2023-04-06T03:20:47.828Z,78.63
2023-04-06T03:21:47.886Z,79.05
2023-04-06T03:22:47.815Z,78.32
2023-04-06T03:23:47.850Z,78.74
2023-04-06T03:24:47.806Z,78.63
2023-04-06T03:25:47.774Z,78.74
2023-04-06T03:26:47.984Z,78.63
2023-04-06T03:27:47.778Z,78.35
2023-04-06T03:28:47.755Z,78.53
2023-04-06T03:29:47.759Z,79.40
2023-04-06T03:30:47.738Z,78.67
2023-04-06T03:31:47.839Z,78.98
2023-04-06T03:32:47.791Z,78.77
2023-04-06T03:33:47.703Z,78.77
2023-04-06T03:34:47.749Z,78.67
2023-04-06T03:35:47.723Z,79.29
2023-04-06T03:36:51.619Z,78.77
2023-04-06T03:37:48.677Z,78.88
2023-04-06T03:38:47.702Z,78.88
2023-04-06T03:39:47.690Z,78.88
2023-04-06T03:40:47.616Z,78.88
2023-04-06T03:41:47.617Z,79.08
2023-04-06T03:42:47.608Z,79.50
2023-04-06T03:43:47.596Z,79.19
2023-04-06T03:44:47.707Z,79.92
2023-04-06T03:45:47.568Z,79.61
2023-04-06T03:46:47.739Z,79.71
2023-04-06T03:47:47.570Z,79.92
2023-04-06T03:48:47.537Z,79.71
2023-04-06T03:49:47.604Z,79.71
2023-04-06T03:50:47.554Z,79.22
2023-04-06T03:51:47.520Z,79.54
2023-04-06T03:52:47.517Z,79.12
2023-04-06T03:53:47.565Z,79.96
2023-04-06T03:54:47.492Z,80.16
2023-04-06T03:55:47.485Z,80.06
2023-04-06T03:56:47.468Z,80.06
2023-04-06T03:57:47.447Z,80.58
2023-04-06T03:58:47.461Z,80.06
2023-04-06T03:59:47.484Z,80.38
2023-04-06T04:00:47.497Z,80.48
2023-04-06T04:01:47.464Z,80.58
2023-04-06T04:02:47.480Z,80.58
2023-04-06T04:03:49.524Z,80.48
2023-04-06T04:04:47.497Z,80.48
2023-04-06T04:05:47.388Z,79.96
2023-04-06T04:06:47.367Z,80.48
2023-04-06T04:07:47.359Z,80.38
2023-04-06T04:08:47.336Z,79.96
2023-04-06T04:09:47.407Z,80.06
2023-04-06T04:10:47.361Z,79.96
2023-04-06T04:11:47.319Z,80.16
2023-04-06T04:12:47.293Z,79.85
2023-04-06T04:13:47.331Z,79.96
2023-04-06T04:14:47.296Z,79.96
2023-04-06T04:15:47.371Z,79.96
2023-04-06T04:16:47.300Z,80.06
2023-04-06T04:17:47.286Z,79.96
2023-04-06T04:18:47.235Z,79.89
2023-04-06T04:19:47.232Z,80.16
2023-04-06T04:20:47.399Z,80.16
2023-04-06T04:21:47.189Z,80.31
2023-04-06T04:22:47.188Z,80.06
2023-04-06T04:23:47.192Z,80.27
2023-04-06T04:24:47.171Z,80.06
2023-04-06T04:25:47.222Z,80.27
2023-04-06T04:26:47.189Z,80.06
2023-04-06T04:27:47.136Z,80.06
2023-04-06T04:28:47.143Z,80.06
2023-04-06T04:29:47.130Z,80.06
2023-04-06T04:30:47.182Z,80.06
2023-04-06T04:31:47.165Z,79.75
2023-04-06T04:32:47.179Z,80.16
2023-04-06T04:33:47.103Z,80.06
2023-04-06T04:34:47.114Z,80.06
2023-04-06T04:35:47.233Z,80.06
2023-04-06T04:36:47.060Z,80.16
2023-04-06T04:37:47.105Z,80.06
2023-04-06T04:38:47.051Z,80.16
2023-04-06T04:39:47.041Z,79.99
2023-04-06T04:40:47.124Z,79.85
2023-04-06T04:41:47.027Z,79.96
2023-04-06T04:42:47.038Z,80.20
2023-04-06T04:43:46.988Z,79.85
2023-04-06T04:44:47.009Z,80.16
2023-04-06T04:45:47.001Z,80.38
2023-04-06T04:46:47.027Z,80.16
2023-04-06T04:47:47.111Z,79.99
2023-04-06T04:48:46.973Z,80.20
2023-04-06T04:49:46.932Z,80.10
2023-04-06T04:50:46.928Z,80.48
2023-04-06T04:51:46.967Z,80.16
2023-04-06T04:52:46.910Z,80.27
2023-04-06T04:53:46.888Z,80.27
2023-04-06T04:54:46.878Z,80.16
2023-04-06T04:55:46.868Z,80.10
2023-04-06T04:56:46.940Z,80.20
2023-04-06T04:57:46.848Z,80.27
2023-04-06T04:58:46.837Z,80.20
2023-04-06T04:59:46.895Z,80.27
2023-04-06T05:00:46.818Z,80.27
2023-04-06T05:01:54.889Z,80.16
2023-04-06T05:02:47.897Z,80.31
2023-04-06T05:03:46.883Z,80.48
2023-04-06T05:04:46.885Z,80.27
2023-04-06T05:05:46.765Z,80.27
2023-04-06T05:06:46.827Z,80.58
2023-04-06T05:07:46.752Z,80.06
2023-04-06T05:08:46.758Z,80.27
2023-04-06T05:09:46.934Z,80.27
2023-04-06T05:10:46.729Z,80.16
2023-04-06T05:11:46.713Z,80.27
2023-04-06T05:12:46.690Z,80.27
2023-04-06T05:13:46.684Z,80.16
2023-04-06T05:14:46.729Z,80.06
2023-04-06T05:15:46.707Z,80.16
2023-04-06T05:16:46.662Z,80.27
2023-04-06T05:17:46.671Z,80.06
2023-04-06T05:18:46.682Z,80.38
2023-04-06T05:19:46.699Z,80.86
2023-04-06T05:20:46.623Z,80.76
2023-04-06T05:21:46.614Z,81.07
2023-04-06T05:22:46.610Z,80.76
2023-04-06T05:23:46.591Z,81.18
2023-04-06T05:24:46.654Z,82.12
2023-04-06T05:25:46.575Z,81.66
2023-04-06T05:26:46.603Z,81.56
2023-04-06T05:27:46.593Z,81.66
2023-04-06T05:28:46.531Z,81.56
2023-04-06T05:29:46.581Z,81.03
2023-04-06T05:30:46.527Z,80.82
2023-04-06T05:31:46.603Z,80.58
2023-04-06T05:32:46.539Z,80.05
2023-04-06T05:33:46.509Z,80.37
2023-04-06T05:34:46.551Z,80.58
2023-04-06T05:35:46.523Z,80.05
2023-04-06T05:36:46.461Z,79.74
2023-04-06T05:37:46.733Z,80.05
2023-04-06T05:38:46.423Z,79.71
2023-04-06T05:39:46.478Z,79.08
2023-04-06T05:40:46.406Z,79.29
2023-04-06T05:41:46.389Z,79.08
2023-04-06T05:42:46.397Z,79.60
2023-04-06T05:43:46.371Z,79.60
2023-04-06T05:44:46.375Z,79.60
2023-04-06T05:45:46.432Z,79.50
2023-04-06T05:46:46.419Z,80.02
2023-04-06T05:47:46.392Z,79.19
2023-04-06T05:48:46.321Z,79.08
2023-04-06T05:49:46.323Z,79.60
2023-04-06T05:50:46.392Z,79.71
2023-04-06T05:51:46.311Z,79.60
2023-04-06T05:52:46.292Z,79.60
2023-04-06T05:53:46.263Z,80.05
2023-04-06T05:54:46.297Z,80.47
2023-04-06T05:55:46.330Z,81.16
2023-04-06T05:56:46.241Z,81.83
2023-04-06T05:57:46.306Z,82.14
2023-04-06T05:58:46.246Z,81.48
2023-04-06T05:59:46.266Z,81.93
2023-04-06T06:00:46.260Z,81.83
2023-04-06T06:01:46.220Z,81.59
2023-04-06T06:02:46.320Z,81.79
2023-04-06T06:03:46.164Z,81.48
2023-04-06T06:04:46.248Z,81.90
2023-04-06T06:05:46.145Z,81.86
2023-04-06T06:06:46.153Z,81.02
2023-04-06T06:07:46.224Z,79.88
2023-04-06T06:08:46.141Z,79.15
2023-04-06T06:09:46.112Z,79.88
2023-04-06T06:10:46.096Z,80.05
2023-04-06T06:11:46.098Z,79.74
2023-04-06T06:12:46.155Z,79.01
2023-04-06T06:13:46.083Z,79.53
2023-04-06T06:14:46.047Z,79.08
2023-04-06T06:15:46.110Z,78.24
2023-04-06T06:16:46.180Z,78.77
2023-04-06T06:17:46.079Z,78.87
2023-04-06T06:18:46.008Z,78.03
2023-04-06T06:19:46.010Z,77.48
2023-04-06T06:20:46.019Z,77.51
2023-04-06T06:21:46.057Z,76.86
2023-04-06T06:22:45.991Z,76.43
2023-04-06T06:23:45.967Z,76.43
2023-04-06T06:24:45.945Z,76.86
2023-04-06T06:25:45.941Z,76.54
2023-04-06T06:26:46.000Z,77.75
2023-04-06T06:27:45.922Z,77.23
2023-04-06T06:28:45.918Z,76.92
2023-04-06T06:29:45.932Z,76.61
2023-04-06T06:30:45.894Z,76.51
2023-04-06T06:31:45.975Z,76.51
2023-04-06T06:32:45.927Z,76.47
2023-04-06T06:33:45.871Z,76.72
2023-04-06T06:34:45.860Z,76.78
2023-04-06T06:35:45.850Z,76.99
2023-04-06T06:36:48.062Z,76.57
2023-04-06T06:37:45.907Z,76.26
2023-04-06T06:38:45.829Z,77.27
2023-04-06T06:39:45.820Z,76.95
2023-04-06T06:40:45.804Z,76.78
2023-04-06T06:41:45.823Z,76.75
2023-04-06T06:42:45.820Z,76.85
2023-04-06T06:43:45.791Z,76.75
2023-04-06T06:44:45.763Z,77.16
2023-04-06T06:45:45.835Z,77.48
2023-04-06T06:46:45.758Z,77.69
2023-04-06T06:47:45.833Z,77.69
2023-04-06T06:48:45.742Z,77.55
2023-04-06T06:49:45.691Z,77.65
2023-04-06T06:50:45.754Z,77.55
2023-04-06T06:51:45.690Z,77.34
2023-04-06T06:52:45.675Z,77.34
2023-04-06T06:53:45.745Z,77.55
2023-04-06T06:54:53.305Z,77.23
2023-04-06T06:56:13.360Z,77.61
2023-04-06T06:56:45.635Z,77.51
2023-04-06T06:57:45.626Z,77.20
2023-04-06T06:58:45.706Z,77.51
2023-04-06T06:59:45.602Z,77.16
2023-04-06T07:00:45.629Z,76.75
2023-04-06T07:01:45.596Z,76.23
2023-04-06T07:02:45.597Z,76.64
2023-04-06T07:03:45.604Z,76.61
2023-04-06T07:04:45.901Z,76.02
2023-04-06T07:05:45.537Z,75.57
2023-04-06T07:06:45.544Z,74.43
2023-04-06T07:07:45.621Z,73.91
2023-04-06T07:08:45.509Z,73.25
2023-04-06T07:09:46.511Z,72.84
2023-04-06T07:10:46.519Z,72.11
2023-04-06T07:11:45.541Z,71.87
2023-04-06T07:12:45.563Z,71.66
2023-04-06T07:13:45.461Z,71.56
2023-04-06T07:14:45.450Z,71.77
2023-04-06T07:15:45.429Z,72.25
2023-04-06T07:16:45.518Z,71.63
2023-04-06T07:17:45.418Z,70.70
2023-04-06T07:18:45.411Z,70.28
2023-04-06T07:19:45.389Z,70.49
2023-04-06T07:20:45.442Z,70.04
2023-04-06T07:21:45.445Z,69.94
2023-04-06T07:22:45.367Z,69.94
2023-04-06T07:23:45.344Z,69.94
2023-04-06T07:24:45.357Z,69.42
2023-04-06T07:25:45.328Z,69.70
2023-04-06T07:26:45.415Z,69.63
2023-04-06T07:27:45.303Z,68.77
2023-04-06T07:28:45.394Z,68.66
2023-04-06T07:29:45.275Z,68.35
2023-04-06T07:30:45.323Z,68.46
2023-04-06T07:31:45.335Z,68.53
2023-04-06T07:32:45.338Z,67.80
2023-04-06T07:33:45.389Z,67.29
2023-04-06T07:34:45.291Z,66.77
2023-04-06T07:35:45.379Z,66.53
2023-04-06T07:36:45.205Z,67.15
2023-04-06T07:37:45.248Z,67.25
2023-04-06T07:38:45.183Z,66.50
2023-04-06T07:39:45.181Z,66.71
2023-04-06T07:40:45.293Z,66.09
2023-04-06T07:41:45.194Z,67.22
2023-04-06T07:42:45.168Z,66.09
2023-04-06T07:43:45.138Z,67.22
2023-04-06T07:44:45.178Z,67.19
2023-04-06T07:45:45.149Z,66.67
2023-04-06T07:46:45.178Z,65.33
2023-04-06T07:47:45.152Z,66.99
2023-04-06T07:48:45.084Z,63.89
2023-04-06T07:49:45.113Z,62.82
2023-04-06T07:50:45.074Z,61.89
2023-04-06T07:51:45.044Z,62.82
2023-04-06T07:52:45.078Z,61.79
2023-04-06T07:53:45.025Z,62.79
2023-04-06T07:54:45.062Z,61.66
2023-04-06T07:55:45.001Z,61.87
2023-04-06T07:56:45.091Z,62.27
2023-04-06T07:57:44.980Z,61.94
2023-04-06T07:58:44.984Z,61.83
2023-04-06T07:59:45.090Z,61.83
2023-04-06T08:00:44.969Z,60.08
2023-04-06T08:01:45.945Z,59.95
2023-04-06T08:02:45.086Z,60.16
2023-04-06T08:03:45.254Z,60.47
2023-04-06T08:04:45.807Z,60.75
2023-04-06T08:05:44.893Z,59.20
2023-04-06T08:06:44.909Z,59.41
2023-04-06T08:07:44.936Z,59.92
2023-04-06T08:08:44.863Z,59.89
2023-04-06T08:09:44.882Z,58.45
2023-04-06T08:10:44.839Z,57.73
2023-04-06T08:11:45.016Z,59.17
2023-04-06T08:12:44.843Z,59.69
2023-04-06T08:13:44.824Z,59.66
2023-04-06T08:14:44.816Z,59.25
2023-04-06T08:15:44.820Z,57.70
2023-04-06T08:16:44.862Z,57.81
2023-04-06T08:17:44.800Z,58.11
2023-04-06T08:18:44.753Z,56.98
2023-04-06T08:19:44.746Z,56.67
2023-04-06T08:20:44.744Z,56.57
2023-04-06T08:21:44.751Z,57.50
2023-04-06T08:22:44.788Z,56.98
2023-04-06T08:23:44.739Z,57.18
2023-04-06T08:24:44.689Z,57.60
2023-04-06T08:25:44.697Z,55.95
2023-04-06T08:26:44.768Z,57.47
2023-04-06T08:27:44.673Z,56.65
2023-04-06T08:28:46.921Z,56.03
2023-04-06T08:29:44.660Z,56.34
2023-04-06T08:30:44.763Z,55.51
2023-04-06T08:31:44.704Z,56.72
2023-04-06T08:32:44.670Z,55.51
2023-04-06T08:33:44.624Z,57.24
2023-04-06T08:34:44.585Z,57.75
2023-04-06T08:35:44.642Z,55.80
2023-04-06T08:36:44.573Z,56.00
2023-04-06T08:37:44.612Z,56.00
2023-04-06T08:38:44.620Z,55.57
2023-04-06T08:39:44.611Z,55.59
2023-04-06T08:40:44.534Z,55.46
2023-04-06T08:41:44.531Z,55.49
2023-04-06T08:42:44.568Z,55.05
2023-04-06T08:43:44.504Z,55.36
2023-04-06T08:44:44.488Z,56.38
2023-04-06T08:45:44.477Z,56.08
2023-04-06T08:46:44.517Z,55.26
2023-04-06T08:47:44.551Z,55.57
2023-04-06T08:48:44.464Z,56.90
2023-04-06T08:49:44.423Z,54.94
2023-04-06T08:50:44.440Z,54.74
2023-04-06T08:51:44.427Z,54.41
2023-04-06T08:52:44.444Z,55.15
2023-04-06T08:53:44.386Z,54.82
2023-04-06T08:54:44.386Z,56.26
2023-04-06T08:55:44.384Z,54.30
2023-04-06T08:56:44.376Z,55.85
2023-04-06T08:57:44.421Z,56.70
2023-04-06T08:58:44.403Z,56.46
2023-04-06T08:59:44.388Z,56.67
2023-04-06T09:00:44.321Z,55.54
2023-04-06T09:01:44.422Z,55.74
2023-04-06T09:02:44.477Z,55.54
2023-04-06T09:03:44.407Z,55.51
2023-04-06T09:04:44.360Z,54.79
2023-04-06T09:05:44.269Z,55.00
2023-04-06T09:06:44.260Z,56.02
2023-04-06T09:07:44.309Z,56.54
2023-04-06T09:08:44.239Z,54.79
2023-04-06T09:09:44.263Z,55.62
2023-04-06T09:10:44.212Z,56.72
2023-04-06T09:11:44.271Z,55.49
2023-04-06T09:12:44.261Z,55.59
2023-04-06T09:13:44.198Z,54.87
2023-04-06T09:16:23.860Z,54.64
2023-04-06T09:16:54.383Z,54.13
2023-04-06T09:17:53.530Z,55.77
2023-04-06T09:18:53.365Z,55.77
2023-04-06T09:19:53.379Z,55.46
2023-04-06T09:20:53.429Z,55.05
2023-04-06T09:21:53.333Z,54.85
2023-04-06T09:22:53.431Z,53.69
2023-04-06T09:23:53.370Z,52.46
2023-04-06T09:24:53.315Z,53.49
2023-04-06T09:25:53.305Z,53.69
2023-04-06T09:26:53.352Z,54.30
2023-04-06T09:27:53.314Z,55.95
2023-04-06T09:28:53.279Z,53.79
2023-04-06T09:29:53.272Z,54.00
2023-04-06T09:30:53.244Z,54.61
2023-04-06T09:31:53.358Z,54.59
2023-04-06T09:32:53.415Z,54.30
2023-04-06T09:33:53.226Z,53.25
2023-04-06T09:34:53.198Z,53.46
2023-04-06T09:35:53.332Z,53.66
2023-04-06T09:36:53.184Z,52.54
2023-04-06T09:37:53.187Z,53.87
2023-04-06T09:38:53.160Z,53.36
2023-04-06T09:39:53.159Z,53.77
2023-04-06T09:41:00.233Z,53.23
2023-04-06T09:41:54.158Z,53.74
2023-04-06T09:42:53.113Z,54.15
2023-04-06T09:43:53.132Z,52.10
2023-04-06T09:44:53.186Z,53.61
2023-04-06T09:45:53.173Z,53.61
2023-04-06T09:47:00.197Z,52.69
2023-04-06T09:47:54.144Z,52.39
2023-04-06T09:48:53.051Z,54.02
2023-04-06T09:49:53.180Z,53.41
2023-04-06T09:50:53.053Z,52.39
2023-04-06T09:51:53.034Z,52.56
2023-04-06T09:52:53.074Z,53.28
2023-04-06T09:53:52.999Z,52.47
2023-04-06T09:54:53.008Z,51.85
2023-04-06T09:55:52.991Z,52.05
2023-04-06T09:56:53.071Z,51.31
2023-04-06T09:57:52.957Z,51.10
2023-04-06T09:58:53.064Z,51.42
2023-04-06T09:59:53.217Z,52.54
2023-04-06T10:00:54.504Z,51.51
2023-04-06T10:01:52.925Z,51.62
2023-04-06T10:02:53.094Z,50.18
2023-04-06T10:03:53.061Z,53.26
2023-04-06T10:04:52.877Z,52.54
2023-04-06T10:05:52.875Z,50.70
2023-04-06T10:06:52.930Z,50.39
2023-04-06T10:08:00.433Z,50.57
2023-04-06T10:08:53.838Z,49.85
2023-04-06T10:09:52.846Z,50.37
2023-04-06T10:10:52.818Z,49.85
2023-04-06T10:11:52.807Z,50.06
2023-04-06T10:12:52.857Z,50.88
2023-04-06T10:13:52.789Z,50.47
2023-04-06T10:14:52.791Z,53.03
2023-04-06T10:15:52.799Z,50.96
2023-04-06T10:16:52.828Z,51.37
2023-04-06T10:17:53.085Z,51.37
2023-04-06T10:18:52.723Z,52.29
2023-04-06T10:19:52.745Z,52.57
2023-04-06T10:20:52.727Z,50.55
2023-04-06T10:21:52.713Z,49.63
2023-04-06T10:22:52.749Z,50.63
2023-04-06T10:23:52.721Z,49.52
2023-04-06T10:24:52.673Z,50.22
2023-04-06T10:25:52.664Z,49.71
2023-04-06T10:26:52.660Z,49.81
2023-04-06T10:27:52.695Z,50.73
2023-04-06T10:28:52.629Z,51.06
2023-04-06T10:29:53.548Z,53.08
2023-04-06T10:30:52.617Z,50.52
2023-04-06T10:31:52.664Z,49.30
2023-04-06T10:32:52.744Z,49.60
2023-04-06T10:33:52.588Z,48.05
2023-04-06T10:34:52.562Z,49.27
2023-04-06T10:35:52.564Z,49.58
2023-04-06T10:36:52.548Z,50.20
2023-04-06T10:37:52.697Z,50.91
2023-04-06T10:38:52.523Z,48.43
2023-04-06T10:39:52.508Z,50.37
2023-04-06T10:40:52.523Z,50.89
2023-04-06T10:41:52.496Z,49.25
2023-04-06T10:42:52.559Z,49.25
2023-04-06T10:43:52.661Z,50.58
2023-04-06T10:44:52.478Z,50.27
2023-04-06T10:45:52.511Z,50.27
2023-04-06T10:46:53.475Z,50.35
2023-04-06T10:47:52.562Z,47.39
2023-04-06T10:48:52.426Z,47.80
2023-04-06T10:49:52.437Z,48.80
2023-04-06T10:50:52.398Z,48.59
2023-04-06T10:51:52.410Z,47.57
2023-04-06T10:52:52.428Z,47.78
2023-04-06T10:53:52.453Z,44.51
2023-04-06T10:54:52.369Z,46.12
2023-04-06T10:55:52.386Z,46.14
2023-04-06T10:56:52.342Z,44.20
2023-04-06T10:57:52.330Z,47.27
2023-04-06T10:58:52.397Z,47.16
2023-04-06T10:59:52.308Z,46.83
2023-04-06T11:00:52.448Z,45.92
2023-04-06T11:01:52.456Z,46.33
2023-04-06T11:02:52.287Z,47.55
2023-04-06T11:03:52.394Z,44.79
2023-04-06T11:04:52.257Z,46.83
2023-04-06T11:05:52.282Z,47.14
2023-04-06T11:06:53.264Z,46.41
2023-04-06T11:07:52.288Z,45.79
2023-04-06T11:08:52.201Z,45.69
2023-04-06T11:10:11.253Z,45.81
2023-04-06T11:10:53.202Z,45.72
2023-04-06T11:11:52.250Z,46.12
2023-04-06T11:12:52.215Z,45.39
2023-04-06T11:13:52.163Z,46.41
2023-04-06T11:14:52.146Z,46.81
2023-04-06T11:15:52.124Z,46.92
2023-04-06T11:16:52.261Z,46.81
2023-04-06T11:17:52.252Z,46.61
2023-04-06T11:18:52.115Z,45.69
2023-04-06T11:19:52.290Z,44.46
2023-04-06T11:20:52.129Z,47.42
2023-04-06T11:21:52.136Z,47.22
2023-04-06T11:22:52.069Z,47.63
2023-04-06T11:23:52.082Z,46.20
2023-04-06T11:24:52.029Z,45.49
2023-04-06T11:25:52.156Z,45.79
2023-04-06T11:26:52.028Z,45.49
2023-04-06T11:27:52.000Z,45.69
2023-04-06T11:28:51.989Z,46.81
2023-04-06T11:29:51.972Z,46.41
2023-04-06T11:30:52.060Z,46.41
2023-04-06T11:31:52.106Z,46.20
2023-04-06T11:32:52.003Z,47.09
2023-04-06T11:33:51.945Z,46.28
2023-04-06T11:34:51.934Z,46.08
2023-04-06T11:35:52.005Z,44.85
2023-04-06T11:36:51.964Z,46.38
2023-04-06T11:37:51.942Z,44.85
2023-04-06T11:38:51.886Z,45.87
2023-04-06T11:39:51.976Z,46.08
2023-04-06T11:40:51.857Z,45.67
2023-04-06T11:41:51.932Z,43.53
2023-04-06T11:42:51.910Z,43.65
2023-04-06T11:43:51.844Z,44.16
2023-04-06T11:44:51.869Z,43.85
2023-04-06T11:45:51.855Z,44.16
2023-04-06T11:46:51.883Z,43.24
2023-04-06T11:47:51.847Z,42.55
2023-04-06T11:48:51.831Z,43.47
2023-04-06T11:49:51.772Z,43.88
2023-04-06T11:50:51.761Z,42.35
2023-04-06T11:51:51.796Z,45.20
2023-04-06T11:52:51.808Z,46.04
2023-04-06T11:53:51.734Z,45.92
2023-04-06T11:54:51.710Z,44.90
2023-04-06T11:55:51.712Z,44.41
2023-04-06T11:56:51.695Z,44.69
2023-04-06T11:57:51.774Z,44.51
2023-04-06T11:58:51.718Z,44.71
2023-04-06T11:59:51.745Z,44.08
2023-04-06T12:00:51.655Z,44.28
2023-04-06T12:01:51.639Z,43.77
2023-04-06T12:02:51.733Z,46.33
2023-04-06T12:03:51.813Z,44.79
2023-04-06T12:04:51.707Z,44.49
2023-04-06T12:05:51.610Z,45.89
2023-04-06T12:06:51.614Z,44.78
2023-04-06T12:07:51.609Z,45.89
2023-04-06T12:08:51.571Z,45.87
2023-04-06T12:09:51.602Z,45.28
2023-04-06T12:10:51.607Z,44.37
2023-04-06T12:11:51.550Z,44.78
2023-04-06T12:12:51.544Z,45.79
2023-04-06T12:13:51.602Z,46.00
2023-04-06T12:14:51.946Z,43.84
2023-04-06T12:15:51.680Z,43.24
2023-04-06T12:16:51.718Z,42.41
2023-04-06T12:17:51.504Z,43.02
2023-04-06T12:18:51.454Z,43.94
2023-04-06T12:19:51.536Z,44.14
2023-04-06T12:20:51.648Z,42.30
2023-04-06T12:21:51.491Z,43.04
2023-04-06T12:22:51.419Z,43.65
2023-04-06T12:23:51.395Z,44.16
2023-04-06T12:24:51.442Z,44.34
2023-04-06T12:25:51.463Z,44.14
2023-04-06T12:26:54.141Z,44.14
2023-04-06T12:27:52.380Z,44.14
2023-04-06T12:28:51.361Z,45.67
2023-04-06T12:29:51.377Z,44.45
2023-04-06T12:30:51.380Z,45.77
2023-04-06T12:31:51.410Z,45.26
2023-04-06T12:32:51.486Z,44.75
2023-04-06T12:33:51.314Z,44.12
2023-04-06T12:34:51.294Z,44.22
2023-04-06T12:35:51.365Z,43.51
2023-04-06T12:36:51.354Z,43.81
2023-04-06T12:37:51.251Z,44.32
2023-04-06T12:38:51.261Z,45.53
2023-04-06T12:39:51.246Z,46.24
2023-04-06T12:40:51.716Z,46.03
2023-04-06T12:41:51.265Z,46.11
2023-04-06T12:42:51.200Z,46.22
2023-04-06T12:43:51.198Z,43.87
2023-04-06T12:44:51.211Z,43.47
2023-04-06T12:45:51.186Z,42.74
2023-04-06T12:46:51.275Z,43.14
2023-04-06T12:47:51.231Z,43.63
2023-04-06T12:48:51.140Z,43.63
2023-04-06T12:49:51.134Z,39.14
2023-04-06T12:50:51.155Z,40.05
2023-04-06T12:51:51.207Z,40.25
2023-04-06T12:52:51.098Z,38.22
2023-04-06T12:53:51.109Z,38.43